sensor_id;sensor_type;location;lat;lon;timestamp;P1;durP1;ratioP1;P2;durP2;ratioP2
71620;SDS011;59471;42.254;23.102;2023-11-21T00:00:18;10.40;;;4.07;;
71620;SDS011;59471;42.254;23.102;2023-11-21T00:02:45;9.05;;;3.75;;
71620;SDS011;59471;42.254;23.102;2023-11-21T00:05:11;14.85;;;3.90;;
71620;SDS011;59471;42.254;23.102;2023-11-21T00:07:39;9.40;;;4.07;;
71620;SDS011;59471;42.254;23.102;2023-11-21T00:10:09;8.48;;;3.40;;
71620;SDS011;59471;42.254;23.102;2023-11-21T00:12:35;7.97;;;3.83;;
71620;SDS011;59471;42.254;23.102;2023-11-21T00:15:02;8.13;;;3.92;;
71620;SDS011;59471;42.254;23.102;2023-11-21T00:17:30;5.87;;;3.03;;
71620;SDS011;59471;42.254;23.102;2023-11-21T00:19:56;7.50;;;3.28;;
71620;SDS011;59471;42.254;23.102;2023-11-21T00:22:21;10.53;;;3.63;;
71620;SDS011;59471;42.254;23.102;2023-11-21T00:24:47;7.23;;;2.87;;
71620;SDS011;59471;42.254;23.102;2023-11-21T00:27:13;7.95;;;3.30;;
71620;SDS011;59471;42.254;23.102;2023-11-21T00:29:39;8.27;;;3.13;;
71620;SDS011;59471;42.254;23.102;2023-11-21T00:32:05;7.93;;;3.43;;
71620;SDS011;59471;42.254;23.102;2023-11-21T00:34:32;5.30;;;2.63;;
71620;SDS011;59471;42.254;23.102;2023-11-21T00:36:58;6.88;;;3.10;;
71620;SDS011;59471;42.254;23.102;2023-11-21T00:39:24;7.53;;;3.13;;
71620;SDS011;59471;42.254;23.102;2023-11-21T00:41:51;8.23;;;3.00;;
71620;SDS011;59471;42.254;23.102;2023-11-21T00:44:17;13.15;;;3.00;;
71620;SDS011;59471;42.254;23.102;2023-11-21T00:46:42;5.90;;;2.93;;
71620;SDS011;59471;42.254;23.102;2023-11-21T00:49:08;6.88;;;2.60;;
71620;SDS011;59471;42.254;23.102;2023-11-21T00:51:34;6.40;;;3.13;;
71620;SDS011;59471;42.254;23.102;2023-11-21T00:54:00;11.65;;;3.28;;
71620;SDS011;59471;42.254;23.102;2023-11-21T00:56:26;6.90;;;2.60;;
71620;SDS011;59471;42.254;23.102;2023-11-21T00:58:52;4.93;;;2.55;;
71620;SDS011;59471;42.254;23.102;2023-11-21T01:01:18;8.80;;;2.97;;
71620;SDS011;59471;42.254;23.102;2023-11-21T01:03:48;6.47;;;2.93;;
71620;SDS011;59471;42.254;23.102;2023-11-21T01:06:14;7.43;;;3.30;;
71620;SDS011;59471;42.254;23.102;2023-11-21T01:08:40;6.78;;;3.03;;
71620;SDS011;59471;42.254;23.102;2023-11-21T01:11:06;6.30;;;3.03;;
71620;SDS011;59471;42.254;23.102;2023-11-21T01:13:36;8.32;;;3.45;;
71620;SDS011;59471;42.254;23.102;2023-11-21T01:16:02;6.90;;;2.70;;
71620;SDS011;59471;42.254;23.102;2023-11-21T01:18:28;6.70;;;3.30;;
71620;SDS011;59471;42.254;23.102;2023-11-21T01:20:54;8.33;;;3.37;;
71620;SDS011;59471;42.254;23.102;2023-11-21T01:23:20;8.82;;;3.33;;
71620;SDS011;59471;42.254;23.102;2023-11-21T01:25:45;9.03;;;4.03;;
71620;SDS011;59471;42.254;23.102;2023-11-21T01:28:11;11.73;;;3.77;;
71620;SDS011;59471;42.254;23.102;2023-11-21T01:30:37;7.20;;;3.50;;
71620;SDS011;59471;42.254;23.102;2023-11-21T01:33:02;10.38;;;3.45;;
71620;SDS011;59471;42.254;23.102;2023-11-21T01:35:28;8.20;;;3.63;;
71620;SDS011;59471;42.254;23.102;2023-11-21T01:37:54;8.73;;;4.05;;
71620;SDS011;59471;42.254;23.102;2023-11-21T01:40:20;10.23;;;4.43;;
71620;SDS011;59471;42.254;23.102;2023-11-21T01:42:46;9.20;;;4.65;;
71620;SDS011;59471;42.254;23.102;2023-11-21T01:45:12;11.80;;;3.78;;
71620;SDS011;59471;42.254;23.102;2023-11-21T01:47:38;7.10;;;3.30;;
71620;SDS011;59471;42.254;23.102;2023-11-21T01:50:06;7.03;;;3.85;;
71620;SDS011;59471;42.254;23.102;2023-11-21T01:52:36;7.72;;;3.78;;
71620;SDS011;59471;42.254;23.102;2023-11-21T01:55:03;6.47;;;3.33;;
71620;SDS011;59471;42.254;23.102;2023-11-21T01:57:31;9.20;;;3.47;;
71620;SDS011;59471;42.254;23.102;2023-11-21T01:59:57;7.87;;;3.47;;
71620;SDS011;59471;42.254;23.102;2023-11-21T02:02:24;9.40;;;4.23;;
71620;SDS011;59471;42.254;23.102;2023-11-21T02:04:49;10.63;;;4.15;;
71620;SDS011;59471;42.254;23.102;2023-11-21T02:07:15;5.77;;;3.27;;
71620;SDS011;59471;42.254;23.102;2023-11-21T02:09:40;6.83;;;3.70;;
71620;SDS011;59471;42.254;23.102;2023-11-21T02:12:07;5.82;;;3.20;;
71620;SDS011;59471;42.254;23.102;2023-11-21T02:14:36;7.95;;;4.22;;
71620;SDS011;59471;42.254;23.102;2023-11-21T02:17:02;9.00;;;3.40;;
71620;SDS011;59471;42.254;23.102;2023-11-21T02:19:28;5.60;;;3.08;;
71620;SDS011;59471;42.254;23.102;2023-11-21T02:21:56;7.47;;;3.87;;
71620;SDS011;59471;42.254;23.102;2023-11-21T02:24:31;7.65;;;3.90;;
71620;SDS011;59471;42.254;23.102;2023-11-21T02:26:57;7.47;;;3.95;;
71620;SDS011;59471;42.254;23.102;2023-11-21T02:29:23;7.67;;;3.47;;
71620;SDS011;59471;42.254;23.102;2023-11-21T02:31:52;7.88;;;3.55;;
71620;SDS011;59471;42.254;23.102;2023-11-21T02:34:20;6.10;;;3.15;;
71620;SDS011;59471;42.254;23.102;2023-11-21T02:36:47;9.87;;;4.13;;
71620;SDS011;59471;42.254;23.102;2023-11-21T02:39:16;6.40;;;3.03;;
71620;SDS011;59471;42.254;23.102;2023-11-21T02:41:43;8.43;;;3.72;;
71620;SDS011;59471;42.254;23.102;2023-11-21T02:44:09;12.07;;;3.33;;
71620;SDS011;59471;42.254;23.102;2023-11-21T02:46:35;7.38;;;2.78;;
71620;SDS011;59471;42.254;23.102;2023-11-21T02:49:05;6.85;;;2.88;;
71620;SDS011;59471;42.254;23.102;2023-11-21T02:51:31;10.10;;;3.37;;
71620;SDS011;59471;42.254;23.102;2023-11-21T02:53:58;8.65;;;3.35;;
71620;SDS011;59471;42.254;23.102;2023-11-21T02:56:27;7.28;;;3.45;;
71620;SDS011;59471;42.254;23.102;2023-11-21T02:58:56;10.50;;;4.25;;
71620;SDS011;59471;42.254;23.102;2023-11-21T03:01:22;10.10;;;4.83;;
71620;SDS011;59471;42.254;23.102;2023-11-21T03:03:52;10.13;;;5.22;;
71620;SDS011;59471;42.254;23.102;2023-11-21T03:06:20;11.30;;;4.82;;
71620;SDS011;59471;42.254;23.102;2023-11-21T03:08:46;12.90;;;5.17;;
71620;SDS011;59471;42.254;23.102;2023-11-21T03:11:12;10.18;;;5.53;;
71620;SDS011;59471;42.254;23.102;2023-11-21T03:13:38;9.20;;;4.93;;
71620;SDS011;59471;42.254;23.102;2023-11-21T03:16:07;12.00;;;4.90;;
71620;SDS011;59471;42.254;23.102;2023-11-21T03:18:35;10.27;;;4.60;;
71620;SDS011;59471;42.254;23.102;2023-11-21T03:21:02;7.75;;;3.75;;
71620;SDS011;59471;42.254;23.102;2023-11-21T03:23:28;8.40;;;4.13;;
71620;SDS011;59471;42.254;23.102;2023-11-21T03:25:54;15.20;;;4.43;;
71620;SDS011;59471;42.254;23.102;2023-11-21T03:28:19;9.00;;;4.60;;
71620;SDS011;59471;42.254;23.102;2023-11-21T03:30:45;8.17;;;3.80;;
71620;SDS011;59471;42.254;23.102;2023-11-21T03:33:10;9.20;;;4.13;;
71620;SDS011;59471;42.254;23.102;2023-11-21T03:35:37;7.47;;;3.10;;
71620;SDS011;59471;42.254;23.102;2023-11-21T03:38:03;10.35;;;3.85;;
71620;SDS011;59471;42.254;23.102;2023-11-21T03:40:29;11.32;;;4.03;;
71620;SDS011;59471;42.254;23.102;2023-11-21T03:42:56;9.10;;;3.47;;
71620;SDS011;59471;42.254;23.102;2023-11-21T03:45:22;6.60;;;3.00;;
71620;SDS011;59471;42.254;23.102;2023-11-21T03:47:48;5.17;;;2.80;;
71620;SDS011;59471;42.254;23.102;2023-11-21T03:50:13;5.85;;;2.70;;
71620;SDS011;59471;42.254;23.102;2023-11-21T03:52:39;9.57;;;3.13;;
71620;SDS011;59471;42.254;23.102;2023-11-21T03:55:04;6.93;;;3.47;;
71620;SDS011;59471;42.254;23.102;2023-11-21T03:57:30;7.28;;;3.55;;
71620;SDS011;59471;42.254;23.102;2023-11-21T03:59:55;7.70;;;3.53;;
71620;SDS011;59471;42.254;23.102;2023-11-21T04:02:21;5.93;;;3.42;;
71620;SDS011;59471;42.254;23.102;2023-11-21T04:04:46;7.80;;;3.50;;
71620;SDS011;59471;42.254;23.102;2023-11-21T04:07:12;7.07;;;3.80;;
71620;SDS011;59471;42.254;23.102;2023-11-21T04:09:38;6.05;;;2.55;;
71620;SDS011;59471;42.254;23.102;2023-11-21T04:12:06;7.90;;;3.08;;
71620;SDS011;59471;42.254;23.102;2023-11-21T04:14:34;6.13;;;3.13;;
71620;SDS011;59471;42.254;23.102;2023-11-21T04:16:59;11.63;;;4.13;;
71620;SDS011;59471;42.254;23.102;2023-11-21T04:19:25;8.27;;;3.27;;
71620;SDS011;59471;42.254;23.102;2023-11-21T04:21:50;7.93;;;3.27;;
71620;SDS011;59471;42.254;23.102;2023-11-21T04:24:16;9.90;;;3.38;;
71620;SDS011;59471;42.254;23.102;2023-11-21T04:26:43;5.97;;;3.10;;
71620;SDS011;59471;42.254;23.102;2023-11-21T04:29:09;10.43;;;3.33;;
71620;SDS011;59471;42.254;23.102;2023-11-21T04:31:34;10.20;;;3.20;;
71620;SDS011;59471;42.254;23.102;2023-11-21T04:34:00;5.53;;;2.72;;
71620;SDS011;59471;42.254;23.102;2023-11-21T04:36:26;5.37;;;2.67;;
71620;SDS011;59471;42.254;23.102;2023-11-21T04:38:51;4.55;;;2.67;;
71620;SDS011;59471;42.254;23.102;2023-11-21T04:41:17;5.87;;;2.93;;
71620;SDS011;59471;42.254;23.102;2023-11-21T04:43:43;7.05;;;2.85;;
71620;SDS011;59471;42.254;23.102;2023-11-21T04:46:08;8.20;;;2.90;;
71620;SDS011;59471;42.254;23.102;2023-11-21T04:48:34;25.20;;;8.25;;
71620;SDS011;59471;42.254;23.102;2023-11-21T04:50:59;19.93;;;6.97;;
71620;SDS011;59471;42.254;23.102;2023-11-21T04:53:25;9.83;;;4.50;;
71620;SDS011;59471;42.254;23.102;2023-11-21T04:55:50;14.55;;;5.20;;
71620;SDS011;59471;42.254;23.102;2023-11-21T04:58:17;44.13;;;11.23;;
71620;SDS011;59471;42.254;23.102;2023-11-21T05:00:43;13.85;;;6.38;;
71620;SDS011;59471;42.254;23.102;2023-11-21T05:03:09;9.77;;;3.50;;
71620;SDS011;59471;42.254;23.102;2023-11-21T05:05:34;10.55;;;3.53;;
71620;SDS011;59471;42.254;23.102;2023-11-21T05:08:00;14.90;;;7.70;;
71620;SDS011;59471;42.254;23.102;2023-11-21T05:10:26;16.25;;;7.22;;
71620;SDS011;59471;42.254;23.102;2023-11-21T05:12:52;15.37;;;8.03;;
71620;SDS011;59471;42.254;23.102;2023-11-21T05:15:18;15.57;;;6.00;;
71620;SDS011;59471;42.254;23.102;2023-11-21T05:17:43;37.30;;;20.70;;
71620;SDS011;59471;42.254;23.102;2023-11-21T05:20:10;42.63;;;20.07;;
71620;SDS011;59471;42.254;23.102;2023-11-21T05:22:38;19.35;;;8.23;;
71620;SDS011;59471;42.254;23.102;2023-11-21T05:25:04;13.25;;;7.03;;
71620;SDS011;59471;42.254;23.102;2023-11-21T05:27:32;11.07;;;3.80;;
71620;SDS011;59471;42.254;23.102;2023-11-21T05:29:59;11.80;;;5.10;;
71620;SDS011;59471;42.254;23.102;2023-11-21T05:32:34;25.42;;;8.48;;
71620;SDS011;59471;42.254;23.102;2023-11-21T05:35:00;26.33;;;9.93;;
71620;SDS011;59471;42.254;23.102;2023-11-21T05:37:26;31.73;;;11.45;;
71620;SDS011;59471;42.254;23.102;2023-11-21T05:39:52;24.70;;;10.27;;
71620;SDS011;59471;42.254;23.102;2023-11-21T05:42:21;22.00;;;9.13;;
71620;SDS011;59471;42.254;23.102;2023-11-21T05:44:48;20.25;;;7.78;;
71620;SDS011;59471;42.254;23.102;2023-11-21T05:47:14;23.60;;;11.45;;
71620;SDS011;59471;42.254;23.102;2023-11-21T05:49:40;27.47;;;13.47;;
71620;SDS011;59471;42.254;23.102;2023-11-21T05:52:05;18.55;;;8.30;;
71620;SDS011;59471;42.254;23.102;2023-11-21T05:54:31;24.90;;;11.10;;
71620;SDS011;59471;42.254;23.102;2023-11-21T05:56:57;28.40;;;12.35;;
71620;SDS011;59471;42.254;23.102;2023-11-21T05:59:23;23.60;;;11.03;;
71620;SDS011;59471;42.254;23.102;2023-11-21T06:01:49;21.83;;;9.27;;
71620;SDS011;59471;42.254;23.102;2023-11-21T06:04:15;15.27;;;7.00;;
71620;SDS011;59471;42.254;23.102;2023-11-21T06:06:40;10.88;;;5.00;;
71620;SDS011;59471;42.254;23.102;2023-11-21T06:09:06;10.37;;;4.27;;
71620;SDS011;59471;42.254;23.102;2023-11-21T06:11:34;19.60;;;7.43;;
71620;SDS011;59471;42.254;23.102;2023-11-21T06:14:00;20.17;;;9.80;;
71620;SDS011;59471;42.254;23.102;2023-11-21T06:16:25;18.98;;;9.25;;
71620;SDS011;59471;42.254;23.102;2023-11-21T06:18:52;17.60;;;7.83;;
71620;SDS011;59471;42.254;23.102;2023-11-21T06:21:18;17.77;;;7.85;;
71620;SDS011;59471;42.254;23.102;2023-11-21T06:23:44;14.50;;;7.40;;
71620;SDS011;59471;42.254;23.102;2023-11-21T06:26:09;17.15;;;7.55;;
71620;SDS011;59471;42.254;23.102;2023-11-21T06:28:35;16.47;;;8.13;;
71620;SDS011;59471;42.254;23.102;2023-11-21T06:31:01;18.13;;;7.18;;
71620;SDS011;59471;42.254;23.102;2023-11-21T06:33:33;27.55;;;11.55;;
71620;SDS011;59471;42.254;23.102;2023-11-21T06:35:59;34.87;;;14.07;;
71620;SDS011;59471;42.254;23.102;2023-11-21T06:38:28;39.65;;;16.92;;
71620;SDS011;59471;42.254;23.102;2023-11-21T06:40:55;42.08;;;18.55;;
71620;SDS011;59471;42.254;23.102;2023-11-21T06:43:23;41.40;;;15.20;;
71620;SDS011;59471;42.254;23.102;2023-11-21T06:45:49;45.73;;;18.70;;
71620;SDS011;59471;42.254;23.102;2023-11-21T06:48:14;19.70;;;10.27;;
71620;SDS011;59471;42.254;23.102;2023-11-21T06:50:40;21.33;;;9.07;;
71620;SDS011;59471;42.254;23.102;2023-11-21T06:53:06;22.20;;;10.10;;
71620;SDS011;59471;42.254;23.102;2023-11-21T06:55:33;28.53;;;14.03;;
71620;SDS011;59471;42.254;23.102;2023-11-21T06:57:59;37.30;;;17.63;;
71620;SDS011;59471;42.254;23.102;2023-11-21T07:00:26;41.33;;;20.05;;
71620;SDS011;59471;42.254;23.102;2023-11-21T07:02:54;41.63;;;20.17;;
71620;SDS011;59471;42.254;23.102;2023-11-21T07:05:20;48.22;;;17.92;;
71620;SDS011;59471;42.254;23.102;2023-11-21T07:07:47;33.53;;;17.02;;
71620;SDS011;59471;42.254;23.102;2023-11-21T07:10:14;31.73;;;18.80;;
71620;SDS011;59471;42.254;23.102;2023-11-21T07:12:40;39.13;;;19.80;;
71620;SDS011;59471;42.254;23.102;2023-11-21T07:15:06;31.85;;;15.93;;
71620;SDS011;59471;42.254;23.102;2023-11-21T07:17:35;36.87;;;12.23;;
71620;SDS011;59471;42.254;23.102;2023-11-21T07:20:02;34.83;;;15.85;;
71620;SDS011;59471;42.254;23.102;2023-11-21T07:22:28;28.73;;;16.50;;
71620;SDS011;59471;42.254;23.102;2023-11-21T07:24:57;44.60;;;20.23;;
71620;SDS011;59471;42.254;23.102;2023-11-21T07:27:22;32.42;;;16.33;;
71620;SDS011;59471;42.254;23.102;2023-11-21T07:29:48;30.70;;;15.45;;
71620;SDS011;59471;42.254;23.102;2023-11-21T07:32:14;37.83;;;14.60;;
71620;SDS011;59471;42.254;23.102;2023-11-21T07:34:40;28.25;;;13.82;;
71620;SDS011;59471;42.254;23.102;2023-11-21T07:37:09;31.77;;;15.53;;
71620;SDS011;59471;42.254;23.102;2023-11-21T07:39:35;35.40;;;13.07;;
71620;SDS011;59471;42.254;23.102;2023-11-21T07:42:01;31.63;;;12.60;;
71620;SDS011;59471;42.254;23.102;2023-11-21T07:44:28;24.02;;;11.20;;
71620;SDS011;59471;42.254;23.102;2023-11-21T07:46:54;24.30;;;10.75;;
71620;SDS011;59471;42.254;23.102;2023-11-21T07:49:23;33.95;;;13.35;;
71620;SDS011;59471;42.254;23.102;2023-11-21T07:51:50;26.53;;;10.83;;
71620;SDS011;59471;42.254;23.102;2023-11-21T07:54:16;25.60;;;12.05;;
71620;SDS011;59471;42.254;23.102;2023-11-21T07:56:41;127.80;;;59.30;;
71620;SDS011;59471;42.254;23.102;2023-11-21T07:59:07;32.47;;;13.45;;
71620;SDS011;59471;42.254;23.102;2023-11-21T08:01:33;46.55;;;18.17;;
71620;SDS011;59471;42.254;23.102;2023-11-21T08:03:59;27.67;;;12.80;;
71620;SDS011;59471;42.254;23.102;2023-11-21T08:06:28;25.52;;;13.27;;
71620;SDS011;59471;42.254;23.102;2023-11-21T08:08:55;23.77;;;11.57;;
71620;SDS011;59471;42.254;23.102;2023-11-21T08:11:22;21.87;;;10.97;;
71620;SDS011;59471;42.254;23.102;2023-11-21T08:13:47;19.33;;;10.88;;
71620;SDS011;59471;42.254;23.102;2023-11-21T08:16:13;31.23;;;11.67;;
71620;SDS011;59471;42.254;23.102;2023-11-21T08:18:38;24.95;;;12.15;;
71620;SDS011;59471;42.254;23.102;2023-11-21T08:21:05;16.27;;;6.77;;
71620;SDS011;59471;42.254;23.102;2023-11-21T08:23:30;23.35;;;11.38;;
71620;SDS011;59471;42.254;23.102;2023-11-21T08:25:56;26.80;;;13.73;;
71620;SDS011;59471;42.254;23.102;2023-11-21T08:28:22;39.37;;;18.30;;
71620;SDS011;59471;42.254;23.102;2023-11-21T08:30:50;17.92;;;8.68;;
71620;SDS011;59471;42.254;23.102;2023-11-21T08:33:17;22.43;;;8.10;;
71620;SDS011;59471;42.254;23.102;2023-11-21T08:35:43;15.32;;;6.70;;
71620;SDS011;59471;42.254;23.102;2023-11-21T08:38:10;13.15;;;5.85;;
71620;SDS011;59471;42.254;23.102;2023-11-21T08:40:37;9.57;;;4.37;;
71620;SDS011;59471;42.254;23.102;2023-11-21T08:43:03;14.77;;;8.05;;
71620;SDS011;59471;42.254;23.102;2023-11-21T08:45:29;17.65;;;7.35;;
71620;SDS011;59471;42.254;23.102;2023-11-21T08:47:56;12.07;;;4.63;;
71620;SDS011;59471;42.254;23.102;2023-11-21T08:50:22;10.82;;;4.28;;
71620;SDS011;59471;42.254;23.102;2023-11-21T08:52:47;13.38;;;4.70;;
71620;SDS011;59471;42.254;23.102;2023-11-21T08:55:13;14.97;;;5.50;;
71620;SDS011;59471;42.254;23.102;2023-11-21T08:57:40;14.23;;;6.15;;
71620;SDS011;59471;42.254;23.102;2023-11-21T09:00:07;16.20;;;6.05;;
71620;SDS011;59471;42.254;23.102;2023-11-21T09:02:41;11.30;;;5.43;;
71620;SDS011;59471;42.254;23.102;2023-11-21T09:05:08;18.42;;;7.70;;
71620;SDS011;59471;42.254;23.102;2023-11-21T09:07:39;20.60;;;8.00;;
71620;SDS011;59471;42.254;23.102;2023-11-21T09:10:06;18.53;;;8.37;;
71620;SDS011;59471;42.254;23.102;2023-11-21T09:12:34;21.40;;;9.15;;
71620;SDS011;59471;42.254;23.102;2023-11-21T09:15:04;19.42;;;9.02;;
71620;SDS011;59471;42.254;23.102;2023-11-21T09:17:32;29.45;;;9.15;;
71620;SDS011;59471;42.254;23.102;2023-11-21T09:20:02;26.73;;;9.23;;
71620;SDS011;59471;42.254;23.102;2023-11-21T09:22:30;24.48;;;10.20;;
71620;SDS011;59471;42.254;23.102;2023-11-21T09:24:57;17.50;;;7.78;;
71620;SDS011;59471;42.254;23.102;2023-11-21T09:27:23;21.53;;;8.33;;
71620;SDS011;59471;42.254;23.102;2023-11-21T09:29:48;20.42;;;7.65;;
71620;SDS011;59471;42.254;23.102;2023-11-21T09:32:14;21.20;;;7.93;;
71620;SDS011;59471;42.254;23.102;2023-11-21T09:34:43;18.55;;;7.20;;
71620;SDS011;59471;42.254;23.102;2023-11-21T09:37:09;16.80;;;7.38;;
71620;SDS011;59471;42.254;23.102;2023-11-21T09:39:35;13.53;;;6.33;;
71620;SDS011;59471;42.254;23.102;2023-11-21T09:42:04;16.00;;;6.35;;
71620;SDS011;59471;42.254;23.102;2023-11-21T09:44:38;32.93;;;16.47;;
71620;SDS011;59471;42.254;23.102;2023-11-21T09:47:22;10.43;;;5.28;;
71620;SDS011;59471;42.254;23.102;2023-11-21T09:49:48;7.63;;;4.47;;
71620;SDS011;59471;42.254;23.102;2023-11-21T09:52:27;9.70;;;4.23;;
71620;SDS011;59471;42.254;23.102;2023-11-21T09:54:54;10.32;;;5.18;;
71620;SDS011;59471;42.254;23.102;2023-11-21T09:57:24;11.48;;;5.25;;
71620;SDS011;59471;42.254;23.102;2023-11-21T09:59:50;11.77;;;4.70;;
71620;SDS011;59471;42.254;23.102;2023-11-21T10:04:53;13.20;;;4.85;;
71620;SDS011;59471;42.254;23.102;2023-11-21T10:07:19;13.60;;;6.32;;
71620;SDS011;59471;42.254;23.102;2023-11-21T10:09:46;11.83;;;5.67;;
71620;SDS011;59471;42.254;23.102;2023-11-21T10:12:15;14.80;;;6.43;;
71620;SDS011;59471;42.254;23.102;2023-11-21T10:14:42;7.85;;;4.20;;
71620;SDS011;59471;42.254;23.102;2023-11-21T10:17:10;16.97;;;9.13;;
71620;SDS011;59471;42.254;23.102;2023-11-21T10:19:38;10.15;;;5.35;;
71620;SDS011;59471;42.254;23.102;2023-11-21T10:22:05;13.60;;;5.43;;
71620;SDS011;59471;42.254;23.102;2023-11-21T10:24:32;13.57;;;8.02;;
71620;SDS011;59471;42.254;23.102;2023-11-21T10:26:58;13.33;;;6.67;;
71620;SDS011;59471;42.254;23.102;2023-11-21T10:29:25;16.67;;;8.85;;
71620;SDS011;59471;42.254;23.102;2023-11-21T10:31:52;9.60;;;4.82;;
71620;SDS011;59471;42.254;23.102;2023-11-21T10:34:20;12.00;;;5.37;;
71620;SDS011;59471;42.254;23.102;2023-11-21T10:36:46;14.10;;;5.57;;
71620;SDS011;59471;42.254;23.102;2023-11-21T10:39:21;13.07;;;7.00;;
71620;SDS011;59471;42.254;23.102;2023-11-21T10:41:48;10.63;;;5.40;;
71620;SDS011;59471;42.254;23.102;2023-11-21T10:44:19;11.73;;;6.40;;
71620;SDS011;59471;42.254;23.102;2023-11-21T10:46:52;15.52;;;8.45;;
71620;SDS011;59471;42.254;23.102;2023-11-21T10:49:25;14.35;;;7.65;;
71620;SDS011;59471;42.254;23.102;2023-11-21T10:51:52;13.80;;;6.67;;
71620;SDS011;59471;42.254;23.102;2023-11-21T10:54:19;11.77;;;6.85;;
71620;SDS011;59471;42.254;23.102;2023-11-21T10:56:46;9.20;;;5.57;;
71620;SDS011;59471;42.254;23.102;2023-11-21T10:59:16;11.70;;;6.93;;
71620;SDS011;59471;42.254;23.102;2023-11-21T11:01:44;9.73;;;5.80;;
71620;SDS011;59471;42.254;23.102;2023-11-21T11:04:14;11.40;;;6.22;;
71620;SDS011;59471;42.254;23.102;2023-11-21T11:07:24;13.50;;;6.87;;
71620;SDS011;59471;42.254;23.102;2023-11-21T11:09:34;17.55;;;9.38;;
71620;SDS011;59471;42.254;23.102;2023-11-21T11:12:03;20.80;;;9.75;;
71620;SDS011;59471;42.254;23.102;2023-11-21T11:14:29;85.13;;;33.75;;
71620;SDS011;59471;42.254;23.102;2023-11-21T11:16:57;36.13;;;15.57;;
71620;SDS011;59471;42.254;23.102;2023-11-21T11:19:25;29.45;;;14.98;;
71620;SDS011;59471;42.254;23.102;2023-11-21T11:32:54;47.60;;;24.90;;
71620;SDS011;59471;42.254;23.102;2023-11-21T11:38:22;21.23;;;12.17;;
71620;SDS011;59471;42.254;23.102;2023-11-21T11:40:48;28.90;;;10.82;;
71620;SDS011;59471;42.254;23.102;2023-11-21T11:43:36;26.63;;;10.70;;
71620;SDS011;59471;42.254;23.102;2023-11-21T11:46:09;18.98;;;9.13;;
71620;SDS011;59471;42.254;23.102;2023-11-21T11:48:40;20.33;;;8.20;;
71620;SDS011;59471;42.254;23.102;2023-11-21T11:51:14;51.03;;;34.80;;
71620;SDS011;59471;42.254;23.102;2023-11-21T11:53:43;20.40;;;9.63;;
71620;SDS011;59471;42.254;23.102;2023-11-21T11:56:28;14.17;;;6.80;;
71620;SDS011;59471;42.254;23.102;2023-11-21T11:58:57;21.95;;;10.25;;
71620;SDS011;59471;42.254;23.102;2023-11-21T12:01:27;17.38;;;9.35;;
71620;SDS011;59471;42.254;23.102;2023-11-21T12:04:36;15.37;;;7.07;;
71620;SDS011;59471;42.254;23.102;2023-11-21T12:06:45;17.10;;;7.95;;
71620;SDS011;59471;42.254;23.102;2023-11-21T12:09:17;18.80;;;9.00;;
71620;SDS011;59471;42.254;23.102;2023-11-21T12:11:45;30.60;;;12.43;;
71620;SDS011;59471;42.254;23.102;2023-11-21T12:14:12;28.85;;;10.60;;
71620;SDS011;59471;42.254;23.102;2023-11-21T12:16:39;25.20;;;8.25;;
71620;SDS011;59471;42.254;23.102;2023-11-21T12:19:04;18.45;;;7.82;;
71620;SDS011;59471;42.254;23.102;2023-11-21T12:21:30;20.77;;;7.90;;
71620;SDS011;59471;42.254;23.102;2023-11-21T12:23:57;18.08;;;8.25;;
71620;SDS011;59471;42.254;23.102;2023-11-21T12:26:26;15.60;;;8.55;;
71620;SDS011;59471;42.254;23.102;2023-11-21T12:28:52;27.23;;;11.30;;
71620;SDS011;59471;42.254;23.102;2023-11-21T12:31:21;28.52;;;13.65;;
71620;SDS011;59471;42.254;23.102;2023-11-21T12:33:48;21.13;;;12.27;;
71620;SDS011;59471;42.254;23.102;2023-11-21T12:36:13;49.53;;;22.93;;
71620;SDS011;59471;42.254;23.102;2023-11-21T12:38:40;32.45;;;14.70;;
71620;SDS011;59471;42.254;23.102;2023-11-21T12:41:07;39.25;;;17.65;;
71620;SDS011;59471;42.254;23.102;2023-11-21T12:43:33;50.00;;;23.73;;
71620;SDS011;59471;42.254;23.102;2023-11-21T12:46:12;42.05;;;17.92;;
71620;SDS011;59471;42.254;23.102;2023-11-21T12:48:41;36.88;;;19.33;;
71620;SDS011;59471;42.254;23.102;2023-11-21T12:51:09;29.53;;;13.50;;
71620;SDS011;59471;42.254;23.102;2023-11-21T12:53:39;32.08;;;14.18;;
71620;SDS011;59471;42.254;23.102;2023-11-21T12:56:15;27.23;;;12.68;;
71620;SDS011;59471;42.254;23.102;2023-11-21T12:58:45;35.33;;;12.20;;
71620;SDS011;59471;42.254;23.102;2023-11-21T13:01:12;27.70;;;11.07;;
71620;SDS011;59471;42.254;23.102;2023-11-21T13:03:43;29.65;;;11.77;;
71620;SDS011;59471;42.254;23.102;2023-11-21T13:06:10;45.63;;;18.20;;
71620;SDS011;59471;42.254;23.102;2023-11-21T13:08:37;39.20;;;13.73;;
71620;SDS011;59471;42.254;23.102;2023-11-21T13:11:04;19.38;;;9.95;;
71620;SDS011;59471;42.254;23.102;2023-11-21T13:13:31;22.80;;;9.00;;
71620;SDS011;59471;42.254;23.102;2023-11-21T13:15:59;36.30;;;18.80;;
71620;SDS011;59471;42.254;23.102;2023-11-21T13:18:26;56.65;;;25.63;;
71620;SDS011;59471;42.254;23.102;2023-11-21T13:20:57;28.90;;;13.52;;
71620;SDS011;59471;42.254;23.102;2023-11-21T13:23:25;28.10;;;13.00;;
71620;SDS011;59471;42.254;23.102;2023-11-21T13:25:52;33.20;;;13.73;;
71620;SDS011;59471;42.254;23.102;2023-11-21T13:28:18;40.08;;;17.80;;
71620;SDS011;59471;42.254;23.102;2023-11-21T13:30:46;20.00;;;9.73;;
71620;SDS011;59471;42.254;23.102;2023-11-21T13:33:13;31.00;;;12.87;;
71620;SDS011;59471;42.254;23.102;2023-11-21T13:35:46;74.75;;;34.67;;
71620;SDS011;59471;42.254;23.102;2023-11-21T13:38:16;30.30;;;13.85;;
71620;SDS011;59471;42.254;23.102;2023-11-21T13:40:48;52.17;;;23.07;;
71620;SDS011;59471;42.254;23.102;2023-11-21T13:43:18;45.28;;;18.83;;
71620;SDS011;59471;42.254;23.102;2023-11-21T13:45:50;27.90;;;11.70;;
71620;SDS011;59471;42.254;23.102;2023-11-21T13:48:33;42.40;;;12.57;;
71620;SDS011;59471;42.254;23.102;2023-11-21T13:51:13;23.20;;;10.70;;
71620;SDS011;59471;42.254;23.102;2023-11-21T13:53:45;41.40;;;18.67;;
71620;SDS011;59471;42.254;23.102;2023-11-21T13:56:17;46.15;;;18.52;;
71620;SDS011;59471;42.254;23.102;2023-11-21T13:58:48;36.10;;;15.87;;
71620;SDS011;59471;42.254;23.102;2023-11-21T14:01:17;29.15;;;14.25;;
71620;SDS011;59471;42.254;23.102;2023-11-21T14:03:57;25.77;;;13.25;;
71620;SDS011;59471;42.254;23.102;2023-11-21T14:06:40;66.73;;;34.63;;
71620;SDS011;59471;42.254;23.102;2023-11-21T14:09:20;36.88;;;14.73;;
71620;SDS011;59471;42.254;23.102;2023-11-21T14:11:51;23.38;;;11.05;;
71620;SDS011;59471;42.254;23.102;2023-11-21T14:14:22;43.53;;;18.30;;
71620;SDS011;59471;42.254;23.102;2023-11-21T14:16:51;54.92;;;20.42;;
71620;SDS011;59471;42.254;23.102;2023-11-21T14:19:17;76.90;;;32.08;;
71620;SDS011;59471;42.254;23.102;2023-11-21T14:21:44;55.45;;;26.85;;
71620;SDS011;59471;42.254;23.102;2023-11-21T14:24:13;66.83;;;29.13;;
71620;SDS011;59471;42.254;23.102;2023-11-21T14:26:43;78.30;;;29.75;;
71620;SDS011;59471;42.254;23.102;2023-11-21T14:29:15;67.47;;;28.98;;
71620;SDS011;59471;42.254;23.102;2023-11-21T14:31:45;46.27;;;20.50;;
71620;SDS011;59471;42.254;23.102;2023-11-21T14:34:13;47.67;;;21.63;;
71620;SDS011;59471;42.254;23.102;2023-11-21T14:36:40;41.78;;;16.35;;
71620;SDS011;59471;42.254;23.102;2023-11-21T14:39:06;206.80;;;92.10;;